createdAt,value
2022-08-01T00:01:00.493Z,22.10
2022-08-01T00:04:03.523Z,22.10
2022-08-01T00:07:06.692Z,22.10
2022-08-01T00:10:11.851Z,22.10
2022-08-01T00:13:16.417Z,22.00
2022-08-01T00:16:19.350Z,22.00
2022-08-01T00:19:22.351Z,21.90
2022-08-01T00:22:25.308Z,21.90
2022-08-01T00:25:33.931Z,21.80
2022-08-01T00:28:38.909Z,21.70
2022-08-01T00:31:41.876Z,21.90
2022-08-01T00:34:44.792Z,21.70
2022-08-01T00:37:47.717Z,21.70
2022-08-01T00:40:50.723Z,21.70
2022-08-01T00:43:55.374Z,21.70
2022-08-01T00:46:58.438Z,21.70
2022-08-01T00:50:01.420Z,21.70
2022-08-01T00:53:04.673Z,21.60
2022-08-01T00:56:08.750Z,21.60
2022-08-01T00:59:14.892Z,21.60
2022-08-01T01:02:18.975Z,21.50
2022-08-01T01:05:22.232Z,21.40
2022-08-01T01:08:33.886Z,21.40
2022-08-01T01:11:45.542Z,21.40
2022-08-01T01:15:01.359Z,21.40
2022-08-01T01:18:08.527Z,21.30
2022-08-01T01:21:36.737Z,21.30
2022-08-01T01:24:47.129Z,21.20
2022-08-01T01:28:01.156Z,21.20
2022-08-01T01:31:10.891Z,21.10
2022-08-01T01:34:16.966Z,21.10
2022-08-01T01:37:22.330Z,21.10
2022-08-01T01:40:26.685Z,21.00
2022-08-01T01:43:33.370Z,21.00
2022-08-01T01:46:38.805Z,21.00
2022-08-01T01:49:43.668Z,21.00
2022-08-01T01:52:48.512Z,21.00
2022-08-01T01:55:55.446Z,21.00
2022-08-01T01:59:02.354Z,21.00
2022-08-01T02:02:09.495Z,20.90
2022-08-01T02:05:15.003Z,20.90
2022-08-01T02:08:19.261Z,20.90
2022-08-01T02:11:23.230Z,20.80
2022-08-01T02:14:28.056Z,20.80
2022-08-01T02:17:33.294Z,20.70
2022-08-01T02:20:38.921Z,20.70
2022-08-01T02:23:44.105Z,20.60
2022-08-01T02:26:52.587Z,20.60
2022-08-01T02:30:00.578Z,20.50
2022-08-01T02:33:15.462Z,20.40
2022-08-01T02:36:29.135Z,20.30
2022-08-01T02:39:38.499Z,20.30
2022-08-01T02:42:45.741Z,20.20
2022-08-01T02:45:58.147Z,20.20
2022-08-01T02:49:04.707Z,20.20
2022-08-01T02:52:12.623Z,20.20
2022-08-01T02:55:16.906Z,20.20
2022-08-01T02:58:29.370Z,20.20
2022-08-01T03:01:34.630Z,20.20
2022-08-01T03:04:42.429Z,20.10
2022-08-01T03:07:46.025Z,20.10
2022-08-01T03:10:55.760Z,20.10
2022-08-01T03:14:01.173Z,20.10
2022-08-01T03:17:06.113Z,20.10
2022-08-01T03:20:13.948Z,20.10
2022-08-01T03:23:18.605Z,20.10
2022-08-01T03:26:22.292Z,20.10
2022-08-01T03:29:28.133Z,20.00
2022-08-01T03:32:32.696Z,20.00
2022-08-01T03:35:41.266Z,20.00
2022-08-01T03:38:47.876Z,20.10
2022-08-01T03:42:02.759Z,20.10
2022-08-01T03:45:13.219Z,20.10
2022-08-01T03:48:19.071Z,20.10
2022-08-01T03:51:24.698Z,20.10
2022-08-01T03:54:33.600Z,20.10
2022-08-01T03:57:37.410Z,20.10
2022-08-01T04:00:41.428Z,20.10
2022-08-01T04:03:44.840Z,20.10
2022-08-01T04:06:52.107Z,20.10
2022-08-01T04:09:55.202Z,20.20
2022-08-01T04:12:58.193Z,20.20
2022-08-01T04:16:03.584Z,20.20
2022-08-01T04:19:08.579Z,20.20
2022-08-01T04:22:15.516Z,20.20
2022-08-01T04:25:23.736Z,20.20
2022-08-01T04:28:27.543Z,20.30
2022-08-01T04:31:32.775Z,20.30
2022-08-01T04:34:36.462Z,20.30
2022-08-01T04:37:42.979Z,20.30
2022-08-01T04:40:47.443Z,20.30
2022-08-01T04:43:52.128Z,20.30
2022-08-01T04:46:57.452Z,20.30
2022-08-01T04:50:00.740Z,20.40
2022-08-01T04:53:06.115Z,20.40
2022-08-01T04:56:09.201Z,20.40
2022-08-01T04:59:29.596Z,20.40
2022-08-01T05:02:32.513Z,20.50
2022-08-01T05:05:35.956Z,20.50
2022-08-01T05:08:40.336Z,20.40
2022-08-01T05:11:43.275Z,20.30
2022-08-01T05:14:46.859Z,20.30
2022-08-01T05:17:49.778Z,20.30
2022-08-01T05:20:52.754Z,20.30
2022-08-01T05:23:57.174Z,20.20
2022-08-01T05:27:00.964Z,20.20
2022-08-01T05:30:07.795Z,20.20
2022-08-01T05:33:10.791Z,20.30
2022-08-01T05:36:13.700Z,20.30
2022-08-01T05:39:17.997Z,20.30
2022-08-01T05:42:20.959Z,20.30
2022-08-01T05:45:23.893Z,20.30
2022-08-01T05:48:27.050Z,20.40
2022-08-01T05:51:30.193Z,20.50
2022-08-01T05:54:34.521Z,20.50
2022-08-01T05:57:39.214Z,20.50
2022-08-01T06:00:43.661Z,20.60
2022-08-01T06:03:46.643Z,20.70
2022-08-01T06:06:49.971Z,20.80
2022-08-01T06:09:54.413Z,20.90
2022-08-01T06:12:57.401Z,21.10
2022-08-01T06:16:00.292Z,21.10
2022-08-01T06:19:03.264Z,21.20
2022-08-01T06:22:06.651Z,21.20
2022-08-01T06:25:11.528Z,21.20
2022-08-01T06:28:14.435Z,21.10
2022-08-01T06:31:17.400Z,21.20
2022-08-01T06:34:20.373Z,21.30
2022-08-01T06:37:23.601Z,21.10
2022-08-01T06:40:27.913Z,21.20
2022-08-01T06:43:30.889Z,21.20
2022-08-01T06:46:33.819Z,21.20
2022-08-01T06:49:38.102Z,21.30
2022-08-01T06:52:41.146Z,21.50
2022-08-01T06:55:45.402Z,21.60
2022-08-01T06:58:48.330Z,21.70
2022-08-01T07:01:51.331Z,21.80
2022-08-01T07:04:54.285Z,21.90
2022-08-01T07:07:57.192Z,22.00
2022-08-01T07:11:01.818Z,22.00
2022-08-01T07:14:04.697Z,22.10
2022-08-01T07:17:07.654Z,21.90
2022-08-01T07:20:16.280Z,21.90
2022-08-01T07:23:21.898Z,22.00
2022-08-01T07:26:27.656Z,22.00
2022-08-01T07:29:30.613Z,22.20
2022-08-01T07:32:34.745Z,22.30
2022-08-01T07:35:39.180Z,22.30
2022-08-01T07:38:42.122Z,22.20
2022-08-01T07:42:05.775Z,22.10
2022-08-01T07:45:10.275Z,22.10
2022-08-01T07:48:13.248Z,22.00
2022-08-01T07:51:16.178Z,21.90
2022-08-01T07:54:19.124Z,21.90
2022-08-01T07:57:23.453Z,22.00
2022-08-01T08:00:26.440Z,22.10
2022-08-01T08:03:29.318Z,22.20
2022-08-01T08:06:32.433Z,22.20
2022-08-01T08:09:37.319Z,22.10
2022-08-01T08:12:42.289Z,22.00
2022-08-01T08:15:48.440Z,21.90
2022-08-01T08:18:51.691Z,21.80
2022-08-01T08:21:54.611Z,21.60
2022-08-01T08:24:57.567Z,21.50
2022-08-01T08:28:05.531Z,21.40
2022-08-01T08:31:25.609Z,21.50
2022-08-01T08:34:32.000Z,21.60
2022-08-01T08:37:37.930Z,21.80
2022-08-01T08:40:46.961Z,21.90
2022-08-01T08:43:51.232Z,22.00
2022-08-01T08:46:55.991Z,21.90
2022-08-01T08:49:59.858Z,22.00
2022-08-01T08:53:06.485Z,22.00
2022-08-01T08:56:11.023Z,22.10
2022-08-01T08:59:15.925Z,22.20
2022-08-01T09:02:18.813Z,22.20
2022-08-01T09:05:26.585Z,22.10
2022-08-01T09:08:42.345Z,22.10
2022-08-01T09:11:45.432Z,22.30
2022-08-01T09:15:01.973Z,22.50
2022-08-01T09:18:05.009Z,22.80
2022-08-01T09:21:13.239Z,22.90
2022-08-01T09:24:18.045Z,22.80
2022-08-01T09:27:33.566Z,22.70
2022-08-01T09:30:41.135Z,22.60
2022-08-01T09:33:53.231Z,22.50
2022-08-01T09:36:57.693Z,22.50
2022-08-01T09:40:00.708Z,22.60
2022-08-01T09:43:14.935Z,22.70
2022-08-01T09:46:20.603Z,22.80
2022-08-01T09:49:50.665Z,22.80
2022-08-01T09:52:57.091Z,22.80
2022-08-01T09:56:11.761Z,22.70
2022-08-01T09:59:16.854Z,22.60
2022-08-01T10:02:32.323Z,22.60
2022-08-01T10:05:37.403Z,22.50
2022-08-01T10:08:48.650Z,22.50
2022-08-01T10:11:52.755Z,22.60
2022-08-01T10:14:56.427Z,22.70
2022-08-01T10:18:03.788Z,22.80
2022-08-01T10:21:10.786Z,22.80
2022-08-01T10:24:15.006Z,22.90
2022-08-01T10:27:35.788Z,22.90
2022-08-01T10:30:44.217Z,23.00
2022-08-01T10:33:53.602Z,23.00
2022-08-01T10:36:56.814Z,23.00
2022-08-01T10:40:28.217Z,23.10
2022-08-01T10:43:22.717Z,23.10
2022-08-01T10:46:26.708Z,23.10
2022-08-01T10:49:36.576Z,23.10
2022-08-01T10:52:39.883Z,23.00
2022-08-01T10:55:55.120Z,22.90
2022-08-01T10:59:06.811Z,22.90
2022-08-01T11:02:32.250Z,23.00
2022-08-01T11:05:37.864Z,22.90
2022-08-01T11:08:41.311Z,22.90
2022-08-01T11:12:06.220Z,23.00
2022-08-01T11:15:32.148Z,23.10
2022-08-01T11:18:37.887Z,23.40
2022-08-01T11:22:05.021Z,23.70
2022-08-01T11:25:08.238Z,23.70
2022-08-01T11:28:29.151Z,23.60
2022-08-01T11:31:37.417Z,23.40
2022-08-01T11:34:54.697Z,23.30
2022-08-01T11:38:19.050Z,22.90
2022-08-01T11:41:37.666Z,22.60
2022-08-01T11:44:51.128Z,22.40
2022-08-01T11:47:54.064Z,22.20
2022-08-01T11:51:01.998Z,22.20
2022-08-01T11:54:07.010Z,22.10
2022-08-01T11:57:11.862Z,22.10
2022-08-01T12:00:17.820Z,22.30
2022-08-01T12:03:33.128Z,22.40
2022-08-01T12:06:37.038Z,22.50
2022-08-01T12:09:41.402Z,22.90
2022-08-01T12:12:46.690Z,23.10
2022-08-01T12:15:56.212Z,23.50
2022-08-01T12:18:59.701Z,23.70
2022-08-01T12:22:14.120Z,24.10
2022-08-01T12:25:19.765Z,24.40
2022-08-01T12:28:23.747Z,24.60
2022-08-01T12:31:33.837Z,24.70
2022-08-01T12:34:36.722Z,24.80
2022-08-01T12:37:41.153Z,24.70
2022-08-01T12:40:53.208Z,24.50
2022-08-01T12:43:57.847Z,24.50
2022-08-01T12:47:02.452Z,24.50
2022-08-01T12:50:07.807Z,24.30
2022-08-01T12:53:16.916Z,24.50
2022-08-01T12:56:33.961Z,24.80
2022-08-01T12:59:36.981Z,24.80
2022-08-01T13:02:40.817Z,24.90
2022-08-01T13:05:49.144Z,25.10
2022-08-01T13:08:52.126Z,25.20
2022-08-01T13:12:03.872Z,25.40
2022-08-01T13:15:31.911Z,25.50
2022-08-01T13:18:36.254Z,25.30
2022-08-01T13:21:53.796Z,25.00
2022-08-01T13:25:11.877Z,24.80
2022-08-01T13:28:20.210Z,24.70
2022-08-01T13:31:34.699Z,24.50
2022-08-01T13:34:38.298Z,24.50
2022-08-01T13:37:42.964Z,24.70
2022-08-01T13:40:45.949Z,24.80
2022-08-01T13:43:59.045Z,24.80
2022-08-01T13:47:02.235Z,24.70
2022-08-01T13:50:18.914Z,24.70
2022-08-01T13:53:21.874Z,24.70
2022-08-01T13:56:25.759Z,24.50
2022-08-01T13:59:30.126Z,24.30
2022-08-01T14:02:33.092Z,24.10
2022-08-01T14:05:36.138Z,24.00
2022-08-01T14:08:39.384Z,23.90
2022-08-01T14:11:48.963Z,24.00
2022-08-01T14:14:53.307Z,24.10
2022-08-01T14:17:56.283Z,24.40
2022-08-01T14:21:05.336Z,24.60
2022-08-01T14:24:10.602Z,24.80
2022-08-01T14:27:13.680Z,25.00
2022-08-01T14:30:18.149Z,25.30
2022-08-01T14:33:21.028Z,25.60
2022-08-01T14:36:30.139Z,25.90
2022-08-01T14:39:34.350Z,26.00
2022-08-01T14:42:38.616Z,26.10
2022-08-01T14:45:42.871Z,26.20
2022-08-01T14:48:45.852Z,26.40
2022-08-01T14:51:48.827Z,26.30
2022-08-01T14:54:51.777Z,26.30
2022-08-01T14:57:55.030Z,26.30
2022-08-01T15:00:59.705Z,26.10
2022-08-01T15:04:04.570Z,26.00
2022-08-01T15:07:12.728Z,25.60
2022-08-01T15:10:17.151Z,25.50
2022-08-01T15:13:20.013Z,25.40
2022-08-01T15:16:25.433Z,25.30
2022-08-01T15:19:28.859Z,25.30
2022-08-01T15:22:31.882Z,25.10
2022-08-01T15:25:40.803Z,25.00
2022-08-01T15:28:45.284Z,24.80
2022-08-01T15:31:49.651Z,24.70
2022-08-01T15:34:52.879Z,24.70
2022-08-01T15:37:55.822Z,24.60
2022-08-01T15:40:58.990Z,24.60
2022-08-01T15:44:02.029Z,24.70
2022-08-01T15:47:07.401Z,24.80
2022-08-01T15:50:11.066Z,24.70
2022-08-01T15:53:13.998Z,24.80
2022-08-01T15:56:16.968Z,25.00
2022-08-01T15:59:19.917Z,25.00
2022-08-01T16:02:27.438Z,25.10
2022-08-01T16:05:30.372Z,25.10
2022-08-01T16:08:33.484Z,25.30
2022-08-01T16:11:40.939Z,25.20
2022-08-01T16:14:46.141Z,25.30
2022-08-01T16:17:50.499Z,25.30
2022-08-01T16:20:53.436Z,25.30
2022-08-01T16:23:56.323Z,25.20
2022-08-01T16:26:59.625Z,25.20
2022-08-01T16:30:02.560Z,25.20
2022-08-01T16:33:08.221Z,25.20
2022-08-01T16:36:23.325Z,25.10
2022-08-01T16:39:28.191Z,25.00
2022-08-01T16:42:31.233Z,25.00
2022-08-01T16:45:34.123Z,25.00
2022-08-01T16:48:38.493Z,25.00
2022-08-01T16:51:48.105Z,24.90
2022-08-01T16:54:51.318Z,24.80
2022-08-01T16:57:54.258Z,24.70
2022-08-01T17:01:56.186Z,24.80
2022-08-01T17:04:21.651Z,24.70
2022-08-01T17:07:24.622Z,24.80
2022-08-01T17:10:27.714Z,24.80
2022-08-01T17:13:31.089Z,24.70
2022-08-01T17:16:36.248Z,24.60
2022-08-01T17:19:40.834Z,24.60
2022-08-01T17:22:43.838Z,24.60
2022-08-01T17:25:46.880Z,24.50
2022-08-01T17:28:50.167Z,24.50
2022-08-01T17:31:53.070Z,24.40
2022-08-01T17:34:57.343Z,24.50
2022-08-01T17:38:00.402Z,24.30
2022-08-01T17:41:03.538Z,24.30
2022-08-01T17:44:07.042Z,24.30
2022-08-01T17:47:10.337Z,24.20
2022-08-01T17:50:14.862Z,24.10
2022-08-01T17:53:21.153Z,24.00
2022-08-01T17:56:24.725Z,24.00
2022-08-01T17:59:27.638Z,23.90
2022-08-01T18:02:30.740Z,23.90
2022-08-01T18:05:37.389Z,23.80
2022-08-01T18:08:41.810Z,23.80
2022-08-01T18:11:44.830Z,23.70
2022-08-01T18:14:47.745Z,23.60
2022-08-01T18:17:52.297Z,23.60
2022-08-01T18:20:56.570Z,23.50
2022-08-01T18:24:01.558Z,23.50
2022-08-01T18:27:04.946Z,23.50
2022-08-01T18:30:09.190Z,23.50
2022-08-01T18:33:12.111Z,23.60
2022-08-01T18:36:32.921Z,23.50
2022-08-01T18:39:36.781Z,23.50
2022-08-01T18:42:42.238Z,23.50
2022-08-01T18:45:45.280Z,23.40
2022-08-01T18:48:48.615Z,23.40
2022-08-01T18:51:54.234Z,23.30
2022-08-01T18:54:57.168Z,23.20
2022-08-01T18:58:00.105Z,23.20
2022-08-01T19:01:03.101Z,23.20
2022-08-01T19:04:06.662Z,23.10
2022-08-01T19:07:11.673Z,23.10
2022-08-01T19:10:14.585Z,23.10
2022-08-01T19:13:17.915Z,23.10
2022-08-01T19:16:20.922Z,23.00
2022-08-01T19:19:27.664Z,23.10
2022-08-01T19:22:32.576Z,23.10
2022-08-01T19:25:55.067Z,23.00
2022-08-01T19:29:04.329Z,22.90
2022-08-01T19:32:10.401Z,22.80
2022-08-01T19:35:16.741Z,22.80
2022-08-01T19:38:21.270Z,22.60
2022-08-01T19:41:24.248Z,22.60
2022-08-01T19:44:29.636Z,22.50
2022-08-01T19:47:52.040Z,22.40
2022-08-01T19:50:58.065Z,22.40
2022-08-01T19:54:05.829Z,22.30
2022-08-01T19:57:11.620Z,22.30
2022-08-01T20:00:23.386Z,22.20
2022-08-01T20:03:32.673Z,22.10
2022-08-01T20:06:35.874Z,22.10
2022-08-01T20:09:42.310Z,22.00
2022-08-01T20:12:46.425Z,22.00
2022-08-01T20:15:49.763Z,22.00
2022-08-01T20:18:52.917Z,21.90
2022-08-01T20:22:03.537Z,21.90
2022-08-01T20:25:10.549Z,21.90
2022-08-01T20:28:14.433Z,21.90
2022-08-01T20:31:18.910Z,21.80
2022-08-01T20:34:23.371Z,21.80
2022-08-01T20:38:03.838Z,21.80
2022-08-01T20:40:52.813Z,21.80
2022-08-01T20:43:59.512Z,21.70
2022-08-01T20:47:05.014Z,21.80
2022-08-01T20:50:29.457Z,21.80
2022-08-01T20:53:52.560Z,21.70
2022-08-01T20:56:59.824Z,21.70
2022-08-01T21:00:06.058Z,21.70
2022-08-01T21:03:16.654Z,21.70
2022-08-01T21:06:29.061Z,21.70
2022-08-01T21:09:36.976Z,21.60
2022-08-01T21:12:49.493Z,21.60
2022-08-01T21:16:23.287Z,21.50
2022-08-01T21:19:27.301Z,21.40
2022-08-01T21:22:36.983Z,21.30
2022-08-01T21:25:40.244Z,21.30
2022-08-01T21:28:53.885Z,21.20
2022-08-01T21:32:12.360Z,21.20
2022-08-01T21:35:18.451Z,21.10
2022-08-01T21:38:22.426Z,21.10
2022-08-01T21:42:03.274Z,21.10
2022-08-01T21:44:50.842Z,21.00
2022-08-01T21:47:54.979Z,21.00
2022-08-01T21:51:00.416Z,21.00
2022-08-01T21:54:10.426Z,20.90
2022-08-01T21:57:23.588Z,21.00
2022-08-01T22:00:28.669Z,21.00
2022-08-01T22:03:41.862Z,21.00
2022-08-01T22:06:46.298Z,21.10
2022-08-01T22:09:51.406Z,21.00
2022-08-01T22:12:54.645Z,21.00
2022-08-01T22:15:59.644Z,20.90
2022-08-01T22:19:03.154Z,20.80
2022-08-01T22:22:29.077Z,20.80
2022-08-01T22:25:32.626Z,20.70
2022-08-01T22:28:36.359Z,20.70
2022-08-01T22:31:41.016Z,20.60
2022-08-01T22:34:43.938Z,20.60
2022-08-01T22:37:57.061Z,20.50
2022-08-01T22:41:04.284Z,20.40
2022-08-01T22:44:11.097Z,20.30
2022-08-01T22:47:23.225Z,20.30
2022-08-01T22:50:39.761Z,20.20
2022-08-01T22:53:55.927Z,20.20
2022-08-01T22:57:07.157Z,20.10
2022-08-01T23:00:12.675Z,20.00
2022-08-01T23:03:23.946Z,20.00
2022-08-01T23:06:34.873Z,20.00
2022-08-01T23:09:39.365Z,20.00
2022-08-01T23:12:57.667Z,20.00
2022-08-01T23:16:02.398Z,20.00
2022-08-01T23:19:06.958Z,19.90
2022-08-01T23:22:12.478Z,19.90
2022-08-01T23:25:16.970Z,19.90
2022-08-01T23:28:20.184Z,19.90
2022-08-01T23:32:00.329Z,19.90
2022-08-01T23:34:49.069Z,19.80
2022-08-01T23:37:52.627Z,19.80
2022-08-01T23:40:55.677Z,19.70
2022-08-01T23:43:58.646Z,19.70
2022-08-01T23:47:01.783Z,19.70
2022-08-01T23:50:07.870Z,19.70
2022-08-01T23:53:10.826Z,19.70
2022-08-01T23:56:19.171Z,19.70
2022-08-01T23:59:24.901Z,19.70
